sensor_id;sensor_type;location;lat;lon;timestamp;temperature;humidity
57664;DHT22;43493;53.098;6.064;2023-07-31T00:00:15;17.10;99.90
57664;DHT22;43493;53.098;6.064;2023-07-31T00:02:41;17.00;99.90
57664;DHT22;43493;53.098;6.064;2023-07-31T00:05:08;17.00;99.90
57664;DHT22;43493;53.098;6.064;2023-07-31T00:07:34;17.00;99.90
57664;DHT22;43493;53.098;6.064;2023-07-31T00:10:00;17.00;99.90
57664;DHT22;43493;53.098;6.064;2023-07-31T00:12:25;17.00;99.90
57664;DHT22;43493;53.098;6.064;2023-07-31T00:14:51;17.10;99.90
57664;DHT22;43493;53.098;6.064;2023-07-31T00:17:17;17.00;99.90
57664;DHT22;43493;53.098;6.064;2023-07-31T00:19:43;17.00;99.90
57664;DHT22;43493;53.098;6.064;2023-07-31T00:22:09;17.00;99.90
57664;DHT22;43493;53.098;6.064;2023-07-31T00:24:34;17.00;99.90
57664;DHT22;43493;53.098;6.064;2023-07-31T00:27:00;17.00;99.90
57664;DHT22;43493;53.098;6.064;2023-07-31T00:29:26;17.00;99.90
57664;DHT22;43493;53.098;6.064;2023-07-31T00:31:51;16.90;99.90
57664;DHT22;43493;53.098;6.064;2023-07-31T00:34:17;16.90;99.90
57664;DHT22;43493;53.098;6.064;2023-07-31T00:36:42;16.90;99.90
57664;DHT22;43493;53.098;6.064;2023-07-31T00:39:08;16.90;99.90
57664;DHT22;43493;53.098;6.064;2023-07-31T00:41:34;16.90;99.90
57664;DHT22;43493;53.098;6.064;2023-07-31T00:44:00;16.90;99.90
57664;DHT22;43493;53.098;6.064;2023-07-31T00:46:25;16.90;99.90
57664;DHT22;43493;53.098;6.064;2023-07-31T00:48:51;16.90;99.90
57664;DHT22;43493;53.098;6.064;2023-07-31T00:51:17;16.90;99.90
57664;DHT22;43493;53.098;6.064;2023-07-31T00:53:43;16.90;99.90
57664;DHT22;43493;53.098;6.064;2023-07-31T00:56:10;16.90;99.90
57664;DHT22;43493;53.098;6.064;2023-07-31T00:58:36;16.90;99.90
57664;DHT22;43493;53.098;6.064;2023-07-31T01:01:02;16.90;99.90
57664;DHT22;43493;53.098;6.064;2023-07-31T01:03:28;16.90;99.90
57664;DHT22;43493;53.098;6.064;2023-07-31T01:06:15;16.90;99.90
57664;DHT22;43493;53.098;6.064;2023-07-31T01:11:35;16.90;99.90
57664;DHT22;43493;53.098;6.064;2023-07-31T01:14:03;16.90;99.90
57664;DHT22;43493;53.098;6.064;2023-07-31T01:16:29;16.90;99.90
57664;DHT22;43493;53.098;6.064;2023-07-31T01:18:55;16.90;99.90
57664;DHT22;43493;53.098;6.064;2023-07-31T01:26:43;16.90;99.90
57664;DHT22;43493;53.098;6.064;2023-07-31T01:31:42;16.80;99.90
57664;DHT22;43493;53.098;6.064;2023-07-31T01:34:10;16.80;99.90
57664;DHT22;43493;53.098;6.064;2023-07-31T01:36:37;16.80;99.90
57664;DHT22;43493;53.098;6.064;2023-07-31T01:39:03;16.80;99.90
57664;DHT22;43493;53.098;6.064;2023-07-31T01:41:29;16.80;99.90
57664;DHT22;43493;53.098;6.064;2023-07-31T01:43:55;16.80;99.90
57664;DHT22;43493;53.098;6.064;2023-07-31T01:46:20;16.80;99.90
57664;DHT22;43493;53.098;6.064;2023-07-31T01:48:46;16.80;99.90
57664;DHT22;43493;53.098;6.064;2023-07-31T01:51:12;16.80;99.90
57664;DHT22;43493;53.098;6.064;2023-07-31T01:53:37;16.80;99.90
57664;DHT22;43493;53.098;6.064;2023-07-31T01:56:03;16.80;99.90
57664;DHT22;43493;53.098;6.064;2023-07-31T01:58:29;16.80;99.90
57664;DHT22;43493;53.098;6.064;2023-07-31T02:00:55;16.80;99.90
57664;DHT22;43493;53.098;6.064;2023-07-31T02:03:22;16.80;99.90
57664;DHT22;43493;53.098;6.064;2023-07-31T02:05:48;16.80;99.90
57664;DHT22;43493;53.098;6.064;2023-07-31T02:08:15;16.80;99.90
57664;DHT22;43493;53.098;6.064;2023-07-31T02:10:41;16.80;99.90
57664;DHT22;43493;53.098;6.064;2023-07-31T02:13:06;16.80;99.90
57664;DHT22;43493;53.098;6.064;2023-07-31T02:15:33;16.80;99.90
57664;DHT22;43493;53.098;6.064;2023-07-31T02:17:58;16.80;99.90
57664;DHT22;43493;53.098;6.064;2023-07-31T02:20:24;16.80;99.90
57664;DHT22;43493;53.098;6.064;2023-07-31T02:22:50;16.80;99.90
57664;DHT22;43493;53.098;6.064;2023-07-31T02:25:16;16.80;99.90
57664;DHT22;43493;53.098;6.064;2023-07-31T02:27:41;16.80;99.90
57664;DHT22;43493;53.098;6.064;2023-07-31T02:30:07;16.80;99.90
57664;DHT22;43493;53.098;6.064;2023-07-31T02:32:33;16.80;99.90
57664;DHT22;43493;53.098;6.064;2023-07-31T02:34:59;16.80;99.90
57664;DHT22;43493;53.098;6.064;2023-07-31T02:37:25;16.80;99.90
57664;DHT22;43493;53.098;6.064;2023-07-31T02:39:51;16.70;99.90
57664;DHT22;43493;53.098;6.064;2023-07-31T02:42:17;16.80;99.90
57664;DHT22;43493;53.098;6.064;2023-07-31T02:44:43;16.80;99.90
57664;DHT22;43493;53.098;6.064;2023-07-31T02:47:08;16.70;99.90
57664;DHT22;43493;53.098;6.064;2023-07-31T02:49:34;16.70;99.90
57664;DHT22;43493;53.098;6.064;2023-07-31T02:52:00;16.70;99.90
57664;DHT22;43493;53.098;6.064;2023-07-31T02:54:25;16.70;99.90
57664;DHT22;43493;53.098;6.064;2023-07-31T02:56:51;16.70;99.90
57664;DHT22;43493;53.098;6.064;2023-07-31T02:59:17;16.70;99.90
57664;DHT22;43493;53.098;6.064;2023-07-31T03:01:43;16.60;99.90
57664;DHT22;43493;53.098;6.064;2023-07-31T03:04:09;16.60;99.90
57664;DHT22;43493;53.098;6.064;2023-07-31T03:06:35;16.60;99.90
57664;DHT22;43493;53.098;6.064;2023-07-31T03:09:01;16.60;99.90
57664;DHT22;43493;53.098;6.064;2023-07-31T03:11:26;16.60;99.90
57664;DHT22;43493;53.098;6.064;2023-07-31T03:13:52;16.60;99.90
57664;DHT22;43493;53.098;6.064;2023-07-31T03:16:18;16.60;99.90
57664;DHT22;43493;53.098;6.064;2023-07-31T03:18:43;16.60;99.90
57664;DHT22;43493;53.098;6.064;2023-07-31T03:21:09;16.60;99.90
57664;DHT22;43493;53.098;6.064;2023-07-31T03:23:35;16.60;99.90
57664;DHT22;43493;53.098;6.064;2023-07-31T03:26:02;16.60;99.90
57664;DHT22;43493;53.098;6.064;2023-07-31T03:28:31;16.60;99.90
57664;DHT22;43493;53.098;6.064;2023-07-31T03:30:57;16.50;99.90
57664;DHT22;43493;53.098;6.064;2023-07-31T03:33:22;16.50;99.90
57664;DHT22;43493;53.098;6.064;2023-07-31T03:35:48;16.50;99.90
57664;DHT22;43493;53.098;6.064;2023-07-31T03:38:14;16.50;99.90
57664;DHT22;43493;53.098;6.064;2023-07-31T03:40:40;16.40;99.90
57664;DHT22;43493;53.098;6.064;2023-07-31T03:43:05;16.50;99.90
57664;DHT22;43493;53.098;6.064;2023-07-31T03:45:31;16.50;99.90
57664;DHT22;43493;53.098;6.064;2023-07-31T03:47:57;16.40;99.90
57664;DHT22;43493;53.098;6.064;2023-07-31T03:50:23;16.50;99.90
57664;DHT22;43493;53.098;6.064;2023-07-31T03:52:50;16.50;99.90
57664;DHT22;43493;53.098;6.064;2023-07-31T03:55:16;16.50;99.90
57664;DHT22;43493;53.098;6.064;2023-07-31T03:57:42;16.50;99.90
57664;DHT22;43493;53.098;6.064;2023-07-31T04:00:08;16.50;99.90
57664;DHT22;43493;53.098;6.064;2023-07-31T04:02:34;16.50;99.90
57664;DHT22;43493;53.098;6.064;2023-07-31T04:04:59;16.50;99.90
57664;DHT22;43493;53.098;6.064;2023-07-31T04:07:25;16.40;99.90
57664;DHT22;43493;53.098;6.064;2023-07-31T04:09:51;16.50;99.90
57664;DHT22;43493;53.098;6.064;2023-07-31T04:12:16;16.50;99.90
57664;DHT22;43493;53.098;6.064;2023-07-31T04:14:42;16.50;99.90
57664;DHT22;43493;53.098;6.064;2023-07-31T04:17:08;16.50;99.90
57664;DHT22;43493;53.098;6.064;2023-07-31T04:19:33;16.40;99.90
57664;DHT22;43493;53.098;6.064;2023-07-31T04:21:59;16.40;99.90
57664;DHT22;43493;53.098;6.064;2023-07-31T04:24:25;16.40;99.90
57664;DHT22;43493;53.098;6.064;2023-07-31T04:26:51;16.50;99.90
57664;DHT22;43493;53.098;6.064;2023-07-31T04:29:17;16.40;99.90
57664;DHT22;43493;53.098;6.064;2023-07-31T04:31:43;16.40;99.90
57664;DHT22;43493;53.098;6.064;2023-07-31T04:34:09;16.40;99.90
57664;DHT22;43493;53.098;6.064;2023-07-31T04:36:35;16.40;99.90
57664;DHT22;43493;53.098;6.064;2023-07-31T04:39:01;16.50;99.90
57664;DHT22;43493;53.098;6.064;2023-07-31T04:41:27;16.50;99.90
57664;DHT22;43493;53.098;6.064;2023-07-31T04:43:53;16.40;99.90
57664;DHT22;43493;53.098;6.064;2023-07-31T04:46:19;16.40;99.90
57664;DHT22;43493;53.098;6.064;2023-07-31T04:48:44;16.50;99.90
57664;DHT22;43493;53.098;6.064;2023-07-31T04:51:10;16.50;99.90
57664;DHT22;43493;53.098;6.064;2023-07-31T04:53:36;16.50;99.90
57664;DHT22;43493;53.098;6.064;2023-07-31T04:56:02;16.50;99.90
57664;DHT22;43493;53.098;6.064;2023-07-31T04:58:28;16.50;99.90
57664;DHT22;43493;53.098;6.064;2023-07-31T05:00:53;16.50;99.90
57664;DHT22;43493;53.098;6.064;2023-07-31T05:03:19;16.50;99.90
57664;DHT22;43493;53.098;6.064;2023-07-31T05:05:45;16.50;99.90
57664;DHT22;43493;53.098;6.064;2023-07-31T05:08:10;16.50;99.90
57664;DHT22;43493;53.098;6.064;2023-07-31T05:10:36;16.50;99.90
57664;DHT22;43493;53.098;6.064;2023-07-31T05:13:02;16.50;99.90
57664;DHT22;43493;53.098;6.064;2023-07-31T05:15:28;16.50;99.90
57664;DHT22;43493;53.098;6.064;2023-07-31T05:17:54;16.50;99.90
57664;DHT22;43493;53.098;6.064;2023-07-31T05:20:20;16.50;99.90
57664;DHT22;43493;53.098;6.064;2023-07-31T05:22:46;16.60;99.90
57664;DHT22;43493;53.098;6.064;2023-07-31T05:25:12;16.60;99.90
57664;DHT22;43493;53.098;6.064;2023-07-31T05:27:38;16.60;99.90
57664;DHT22;43493;53.098;6.064;2023-07-31T05:30:04;16.60;99.90
57664;DHT22;43493;53.098;6.064;2023-07-31T05:32:30;16.60;99.90
57664;DHT22;43493;53.098;6.064;2023-07-31T05:34:56;16.50;99.90
57664;DHT22;43493;53.098;6.064;2023-07-31T05:37:22;16.60;99.90
57664;DHT22;43493;53.098;6.064;2023-07-31T05:39:48;16.60;99.90
57664;DHT22;43493;53.098;6.064;2023-07-31T05:42:14;16.60;99.90
57664;DHT22;43493;53.098;6.064;2023-07-31T05:44:39;16.60;99.90
57664;DHT22;43493;53.098;6.064;2023-07-31T05:47:05;16.60;99.90
57664;DHT22;43493;53.098;6.064;2023-07-31T05:49:31;16.60;99.90
57664;DHT22;43493;53.098;6.064;2023-07-31T05:51:56;16.70;99.90
57664;DHT22;43493;53.098;6.064;2023-07-31T05:54:22;16.70;99.90
57664;DHT22;43493;53.098;6.064;2023-07-31T05:56:48;16.70;99.90
57664;DHT22;43493;53.098;6.064;2023-07-31T05:59:13;16.70;99.90
57664;DHT22;43493;53.098;6.064;2023-07-31T06:01:39;16.80;99.90
57664;DHT22;43493;53.098;6.064;2023-07-31T06:04:05;16.80;99.90
57664;DHT22;43493;53.098;6.064;2023-07-31T06:06:31;16.80;99.90
57664;DHT22;43493;53.098;6.064;2023-07-31T06:08:57;16.90;99.90
57664;DHT22;43493;53.098;6.064;2023-07-31T06:11:22;16.90;99.90
57664;DHT22;43493;53.098;6.064;2023-07-31T06:13:48;16.90;99.90
57664;DHT22;43493;53.098;6.064;2023-07-31T06:16:15;16.90;99.90
57664;DHT22;43493;53.098;6.064;2023-07-31T06:18:41;16.90;99.90
57664;DHT22;43493;53.098;6.064;2023-07-31T06:21:08;17.00;99.90
57664;DHT22;43493;53.098;6.064;2023-07-31T06:23:33;17.00;99.90
57664;DHT22;43493;53.098;6.064;2023-07-31T06:25:59;17.10;99.90
57664;DHT22;43493;53.098;6.064;2023-07-31T06:28:28;17.10;99.90
57664;DHT22;43493;53.098;6.064;2023-07-31T06:30:55;17.20;99.90
57664;DHT22;43493;53.098;6.064;2023-07-31T06:33:20;17.20;99.90
57664;DHT22;43493;53.098;6.064;2023-07-31T06:35:46;17.20;99.90
57664;DHT22;43493;53.098;6.064;2023-07-31T06:38:12;17.20;99.90
57664;DHT22;43493;53.098;6.064;2023-07-31T06:40:37;17.20;99.90
57664;DHT22;43493;53.098;6.064;2023-07-31T06:43:03;17.20;99.90
57664;DHT22;43493;53.098;6.064;2023-07-31T06:45:36;17.20;99.90
57664;DHT22;43493;53.098;6.064;2023-07-31T06:48:03;17.20;99.90
57664;DHT22;43493;53.098;6.064;2023-07-31T06:50:32;17.20;99.90
57664;DHT22;43493;53.098;6.064;2023-07-31T06:52:58;17.20;99.90
57664;DHT22;43493;53.098;6.064;2023-07-31T06:55:26;17.10;99.90
57664;DHT22;43493;53.098;6.064;2023-07-31T06:57:54;17.10;99.90
57664;DHT22;43493;53.098;6.064;2023-07-31T07:00:21;17.10;99.90
57664;DHT22;43493;53.098;6.064;2023-07-31T07:02:48;17.20;99.90
57664;DHT22;43493;53.098;6.064;2023-07-31T07:05:14;17.20;99.90
57664;DHT22;43493;53.098;6.064;2023-07-31T07:07:40;17.30;99.90
57664;DHT22;43493;53.098;6.064;2023-07-31T07:10:07;17.30;99.90
57664;DHT22;43493;53.098;6.064;2023-07-31T07:12:33;17.30;99.90
57664;DHT22;43493;53.098;6.064;2023-07-31T07:14:59;17.20;99.90
57664;DHT22;43493;53.098;6.064;2023-07-31T07:17:27;17.30;99.90
57664;DHT22;43493;53.098;6.064;2023-07-31T07:19:53;17.30;99.90
57664;DHT22;43493;53.098;6.064;2023-07-31T07:22:19;17.30;99.90
57664;DHT22;43493;53.098;6.064;2023-07-31T07:24:44;17.30;99.90
57664;DHT22;43493;53.098;6.064;2023-07-31T07:27:10;17.30;99.90
57664;DHT22;43493;53.098;6.064;2023-07-31T07:29:38;17.30;99.90
57664;DHT22;43493;53.098;6.064;2023-07-31T07:32:04;17.40;99.90
57664;DHT22;43493;53.098;6.064;2023-07-31T07:34:30;17.40;99.90
57664;DHT22;43493;53.098;6.064;2023-07-31T07:36:56;17.40;99.90
57664;DHT22;43493;53.098;6.064;2023-07-31T07:39:22;17.40;99.90
57664;DHT22;43493;53.098;6.064;2023-07-31T07:41:47;17.40;99.90
57664;DHT22;43493;53.098;6.064;2023-07-31T07:44:14;17.40;99.90
57664;DHT22;43493;53.098;6.064;2023-07-31T07:46:39;17.40;99.90
57664;DHT22;43493;53.098;6.064;2023-07-31T07:49:05;17.40;99.90
57664;DHT22;43493;53.098;6.064;2023-07-31T07:51:31;17.40;99.90
57664;DHT22;43493;53.098;6.064;2023-07-31T07:53:58;17.30;99.90
57664;DHT22;43493;53.098;6.064;2023-07-31T07:56:25;17.30;99.90
57664;DHT22;43493;53.098;6.064;2023-07-31T07:58:50;17.30;99.90
57664;DHT22;43493;53.098;6.064;2023-07-31T08:01:16;17.30;99.90
57664;DHT22;43493;53.098;6.064;2023-07-31T08:03:42;17.30;99.90
57664;DHT22;43493;53.098;6.064;2023-07-31T08:06:08;17.30;99.90
57664;DHT22;43493;53.098;6.064;2023-07-31T08:08:35;17.30;99.90
57664;DHT22;43493;53.098;6.064;2023-07-31T08:11:01;17.30;99.90
57664;DHT22;43493;53.098;6.064;2023-07-31T08:13:27;17.30;99.90
57664;DHT22;43493;53.098;6.064;2023-07-31T08:15:53;17.40;99.90
57664;DHT22;43493;53.098;6.064;2023-07-31T08:18:18;17.40;99.90
57664;DHT22;43493;53.098;6.064;2023-07-31T08:20:44;17.40;99.90
57664;DHT22;43493;53.098;6.064;2023-07-31T08:23:10;17.50;99.90
57664;DHT22;43493;53.098;6.064;2023-07-31T08:25:36;17.40;99.90
57664;DHT22;43493;53.098;6.064;2023-07-31T08:28:03;17.40;99.90
57664;DHT22;43493;53.098;6.064;2023-07-31T08:30:29;17.40;99.90
57664;DHT22;43493;53.098;6.064;2023-07-31T08:32:56;17.50;99.90
57664;DHT22;43493;53.098;6.064;2023-07-31T08:35:21;17.50;99.90
57664;DHT22;43493;53.098;6.064;2023-07-31T08:37:47;17.50;99.90
57664;DHT22;43493;53.098;6.064;2023-07-31T08:40:13;17.50;99.90
57664;DHT22;43493;53.098;6.064;2023-07-31T08:42:49;17.50;99.90
57664;DHT22;43493;53.098;6.064;2023-07-31T08:45:17;17.50;99.90
57664;DHT22;43493;53.098;6.064;2023-07-31T08:47:45;17.50;99.90
57664;DHT22;43493;53.098;6.064;2023-07-31T08:50:16;17.50;99.90
57664;DHT22;43493;53.098;6.064;2023-07-31T08:52:42;17.60;99.90
57664;DHT22;43493;53.098;6.064;2023-07-31T08:55:09;17.60;99.90
57664;DHT22;43493;53.098;6.064;2023-07-31T08:57:37;17.60;99.90
57664;DHT22;43493;53.098;6.064;2023-07-31T09:00:07;17.60;99.90
57664;DHT22;43493;53.098;6.064;2023-07-31T09:02:51;17.60;99.90
57664;DHT22;43493;53.098;6.064;2023-07-31T09:05:18;17.60;99.90
57664;DHT22;43493;53.098;6.064;2023-07-31T09:07:47;17.70;99.90
57664;DHT22;43493;53.098;6.064;2023-07-31T09:10:13;17.70;99.90
57664;DHT22;43493;53.098;6.064;2023-07-31T09:12:39;17.70;99.90
57664;DHT22;43493;53.098;6.064;2023-07-31T09:15:05;17.80;99.90
57664;DHT22;43493;53.098;6.064;2023-07-31T09:17:36;17.80;99.90
57664;DHT22;43493;53.098;6.064;2023-07-31T09:20:21;17.80;99.90
57664;DHT22;43493;53.098;6.064;2023-07-31T09:22:48;17.90;99.90
57664;DHT22;43493;53.098;6.064;2023-07-31T09:25:18;17.90;99.90
57664;DHT22;43493;53.098;6.064;2023-07-31T09:27:53;18.00;99.90
57664;DHT22;43493;53.098;6.064;2023-07-31T09:30:19;18.00;99.90
57664;DHT22;43493;53.098;6.064;2023-07-31T09:32:45;18.10;99.90
57664;DHT22;43493;53.098;6.064;2023-07-31T09:35:27;18.10;99.90
57664;DHT22;43493;53.098;6.064;2023-07-31T09:37:55;18.20;99.90
57664;DHT22;43493;53.098;6.064;2023-07-31T09:40:32;18.20;99.90
57664;DHT22;43493;53.098;6.064;2023-07-31T09:43:03;18.20;99.90
57664;DHT22;43493;53.098;6.064;2023-07-31T09:45:33;18.20;99.90
57664;DHT22;43493;53.098;6.064;2023-07-31T09:47:58;18.30;99.90
57664;DHT22;43493;53.098;6.064;2023-07-31T09:50:25;18.30;99.90
57664;DHT22;43493;53.098;6.064;2023-07-31T09:52:52;18.40;99.90
57664;DHT22;43493;53.098;6.064;2023-07-31T09:55:18;18.40;99.90
57664;DHT22;43493;53.098;6.064;2023-07-31T09:57:46;18.40;99.90
57664;DHT22;43493;53.098;6.064;2023-07-31T10:00:14;18.50;99.90
57664;DHT22;43493;53.098;6.064;2023-07-31T10:02:41;18.60;99.90
57664;DHT22;43493;53.098;6.064;2023-07-31T10:05:07;18.60;99.90
57664;DHT22;43493;53.098;6.064;2023-07-31T10:07:39;18.70;99.90
57664;DHT22;43493;53.098;6.064;2023-07-31T10:10:08;18.70;99.90
57664;DHT22;43493;53.098;6.064;2023-07-31T10:12:37;18.70;99.90
57664;DHT22;43493;53.098;6.064;2023-07-31T10:15:04;18.70;99.90
57664;DHT22;43493;53.098;6.064;2023-07-31T10:17:30;18.70;99.90
57664;DHT22;43493;53.098;6.064;2023-07-31T10:19:58;18.60;99.90
57664;DHT22;43493;53.098;6.064;2023-07-31T10:22:27;18.70;99.90
57664;DHT22;43493;53.098;6.064;2023-07-31T10:24:54;18.70;99.90
57664;DHT22;43493;53.098;6.064;2023-07-31T10:27:21;18.80;99.90
57664;DHT22;43493;53.098;6.064;2023-07-31T10:29:47;18.90;99.90
57664;DHT22;43493;53.098;6.064;2023-07-31T10:32:15;18.90;99.90
57664;DHT22;43493;53.098;6.064;2023-07-31T10:34:43;18.90;99.90
57664;DHT22;43493;53.098;6.064;2023-07-31T10:37:28;19.00;99.90
57664;DHT22;43493;53.098;6.064;2023-07-31T10:40:09;19.00;99.90
57664;DHT22;43493;53.098;6.064;2023-07-31T10:42:37;18.90;99.90
57664;DHT22;43493;53.098;6.064;2023-07-31T10:45:08;18.90;99.90
57664;DHT22;43493;53.098;6.064;2023-07-31T10:47:46;18.90;99.90
57664;DHT22;43493;53.098;6.064;2023-07-31T10:50:19;18.90;99.90
57664;DHT22;43493;53.098;6.064;2023-07-31T10:52:52;19.10;99.90
57664;DHT22;43493;53.098;6.064;2023-07-31T10:55:41;19.10;99.90
57664;DHT22;43493;53.098;6.064;2023-07-31T10:58:10;19.20;99.90
57664;DHT22;43493;53.098;6.064;2023-07-31T11:00:43;19.30;99.90
57664;DHT22;43493;53.098;6.064;2023-07-31T11:03:12;19.40;99.90
57664;DHT22;43493;53.098;6.064;2023-07-31T11:05:48;19.50;99.90
57664;DHT22;43493;53.098;6.064;2023-07-31T11:08:27;19.50;99.90
57664;DHT22;43493;53.098;6.064;2023-07-31T11:11:14;19.40;99.90
57664;DHT22;43493;53.098;6.064;2023-07-31T11:13:49;19.40;99.90
57664;DHT22;43493;53.098;6.064;2023-07-31T11:16:17;19.30;99.90
57664;DHT22;43493;53.098;6.064;2023-07-31T11:18:44;19.40;99.90
57664;DHT22;43493;53.098;6.064;2023-07-31T11:21:15;19.50;99.90
57664;DHT22;43493;53.098;6.064;2023-07-31T11:23:41;19.40;99.90
57664;DHT22;43493;53.098;6.064;2023-07-31T11:26:10;19.40;99.90
57664;DHT22;43493;53.098;6.064;2023-07-31T11:28:37;19.40;99.90
57664;DHT22;43493;53.098;6.064;2023-07-31T11:31:04;19.40;99.90
57664;DHT22;43493;53.098;6.064;2023-07-31T11:33:30;19.30;99.90
57664;DHT22;43493;53.098;6.064;2023-07-31T11:35:57;19.30;99.90
57664;DHT22;43493;53.098;6.064;2023-07-31T11:38:33;19.30;99.90
57664;DHT22;43493;53.098;6.064;2023-07-31T11:41:03;19.20;99.90
57664;DHT22;43493;53.098;6.064;2023-07-31T11:43:29;19.30;99.90
57664;DHT22;43493;53.098;6.064;2023-07-31T11:45:58;19.30;99.90
57664;DHT22;43493;53.098;6.064;2023-07-31T11:48:29;19.50;99.90
57664;DHT22;43493;53.098;6.064;2023-07-31T11:50:59;19.60;99.90
57664;DHT22;43493;53.098;6.064;2023-07-31T11:53:44;19.60;99.90
57664;DHT22;43493;53.098;6.064;2023-07-31T11:56:13;19.50;99.90
57664;DHT22;43493;53.098;6.064;2023-07-31T11:58:41;19.50;99.90
57664;DHT22;43493;53.098;6.064;2023-07-31T12:01:09;19.40;99.90
57664;DHT22;43493;53.098;6.064;2023-07-31T12:03:35;19.40;99.90
57664;DHT22;43493;53.098;6.064;2023-07-31T12:06:01;19.30;99.90
57664;DHT22;43493;53.098;6.064;2023-07-31T12:08:27;19.20;99.90
57664;DHT22;43493;53.098;6.064;2023-07-31T12:10:54;19.10;99.90
57664;DHT22;43493;53.098;6.064;2023-07-31T12:13:25;19.20;99.90
57664;DHT22;43493;53.098;6.064;2023-07-31T12:15:56;19.30;99.90
57664;DHT22;43493;53.098;6.064;2023-07-31T12:18:27;19.30;99.90
57664;DHT22;43493;53.098;6.064;2023-07-31T12:21:00;19.40;99.90
57664;DHT22;43493;53.098;6.064;2023-07-31T12:23:28;19.40;99.90
57664;DHT22;43493;53.098;6.064;2023-07-31T12:28:47;19.50;99.90
57664;DHT22;43493;53.098;6.064;2023-07-31T12:31:18;19.50;99.90
57664;DHT22;43493;53.098;6.064;2023-07-31T12:33:45;19.50;99.90
57664;DHT22;43493;53.098;6.064;2023-07-31T12:36:14;19.50;99.90
57664;DHT22;43493;53.098;6.064;2023-07-31T12:38:40;19.50;99.90
57664;DHT22;43493;53.098;6.064;2023-07-31T12:41:07;19.50;99.90
57664;DHT22;43493;53.098;6.064;2023-07-31T12:43:33;19.50;99.90
57664;DHT22;43493;53.098;6.064;2023-07-31T12:45:59;19.40;99.90
57664;DHT22;43493;53.098;6.064;2023-07-31T12:48:25;19.30;99.90
57664;DHT22;43493;53.098;6.064;2023-07-31T12:50:51;19.30;99.90
57664;DHT22;43493;53.098;6.064;2023-07-31T12:53:16;19.40;99.90
57664;DHT22;43493;53.098;6.064;2023-07-31T12:55:42;19.40;99.90
57664;DHT22;43493;53.098;6.064;2023-07-31T12:58:08;19.40;99.90
57664;DHT22;43493;53.098;6.064;2023-07-31T13:00:34;19.50;99.90
57664;DHT22;43493;53.098;6.064;2023-07-31T13:03:00;19.50;99.90
57664;DHT22;43493;53.098;6.064;2023-07-31T13:05:27;19.50;99.90
57664;DHT22;43493;53.098;6.064;2023-07-31T13:07:53;19.50;99.90
57664;DHT22;43493;53.098;6.064;2023-07-31T13:10:19;19.60;99.90
57664;DHT22;43493;53.098;6.064;2023-07-31T13:12:45;19.60;99.90
57664;DHT22;43493;53.098;6.064;2023-07-31T13:15:11;19.60;99.90
57664;DHT22;43493;53.098;6.064;2023-07-31T13:17:37;19.60;99.90
57664;DHT22;43493;53.098;6.064;2023-07-31T13:20:03;19.60;99.90
57664;DHT22;43493;53.098;6.064;2023-07-31T13:22:29;19.70;99.90
57664;DHT22;43493;53.098;6.064;2023-07-31T13:24:55;19.60;99.90
57664;DHT22;43493;53.098;6.064;2023-07-31T13:27:21;19.60;99.90
57664;DHT22;43493;53.098;6.064;2023-07-31T13:29:53;19.60;99.90
57664;DHT22;43493;53.098;6.064;2023-07-31T13:32:20;19.60;99.90
57664;DHT22;43493;53.098;6.064;2023-07-31T13:34:47;19.60;99.90
57664;DHT22;43493;53.098;6.064;2023-07-31T13:37:13;19.70;99.90
57664;DHT22;43493;53.098;6.064;2023-07-31T13:39:39;19.70;99.90
57664;DHT22;43493;53.098;6.064;2023-07-31T13:42:06;19.70;99.90
57664;DHT22;43493;53.098;6.064;2023-07-31T13:44:37;19.70;99.90
57664;DHT22;43493;53.098;6.064;2023-07-31T13:47:03;19.60;99.90
57664;DHT22;43493;53.098;6.064;2023-07-31T13:49:29;19.60;99.90
57664;DHT22;43493;53.098;6.064;2023-07-31T13:51:55;19.50;99.90
57664;DHT22;43493;53.098;6.064;2023-07-31T13:54:21;19.40;99.90
57664;DHT22;43493;53.098;6.064;2023-07-31T13:56:47;19.30;99.90
57664;DHT22;43493;53.098;6.064;2023-07-31T13:59:13;19.30;99.90
57664;DHT22;43493;53.098;6.064;2023-07-31T14:01:40;19.20;99.90
57664;DHT22;43493;53.098;6.064;2023-07-31T14:04:06;19.30;99.90
57664;DHT22;43493;53.098;6.064;2023-07-31T14:06:31;19.40;99.90
57664;DHT22;43493;53.098;6.064;2023-07-31T14:08:57;19.40;99.90
57664;DHT22;43493;53.098;6.064;2023-07-31T14:11:23;19.40;99.90
57664;DHT22;43493;53.098;6.064;2023-07-31T14:13:50;19.50;99.90
57664;DHT22;43493;53.098;6.064;2023-07-31T14:16:16;19.50;99.90
57664;DHT22;43493;53.098;6.064;2023-07-31T14:18:43;19.50;99.90
57664;DHT22;43493;53.098;6.064;2023-07-31T14:21:09;19.60;99.90
57664;DHT22;43493;53.098;6.064;2023-07-31T14:23:34;19.50;99.90
57664;DHT22;43493;53.098;6.064;2023-07-31T14:26:00;19.60;99.90
57664;DHT22;43493;53.098;6.064;2023-07-31T14:28:26;19.60;99.90
57664;DHT22;43493;53.098;6.064;2023-07-31T14:30:52;19.60;99.90
57664;DHT22;43493;53.098;6.064;2023-07-31T14:33:17;19.50;99.90
57664;DHT22;43493;53.098;6.064;2023-07-31T14:35:43;19.50;99.90
57664;DHT22;43493;53.098;6.064;2023-07-31T14:38:09;19.50;99.90
57664;DHT22;43493;53.098;6.064;2023-07-31T14:40:34;19.50;99.90
57664;DHT22;43493;53.098;6.064;2023-07-31T14:43:00;19.40;99.90
57664;DHT22;43493;53.098;6.064;2023-07-31T14:45:26;19.40;99.90
57664;DHT22;43493;53.098;6.064;2023-07-31T14:47:51;19.40;99.90
57664;DHT22;43493;53.098;6.064;2023-07-31T14:50:17;19.30;99.90
57664;DHT22;43493;53.098;6.064;2023-07-31T14:52:44;19.30;99.90
57664;DHT22;43493;53.098;6.064;2023-07-31T14:55:10;19.30;99.90
57664;DHT22;43493;53.098;6.064;2023-07-31T14:57:36;19.30;99.90
57664;DHT22;43493;53.098;6.064;2023-07-31T15:00:02;19.20;99.90
57664;DHT22;43493;53.098;6.064;2023-07-31T15:02:35;19.20;99.90
57664;DHT22;43493;53.098;6.064;2023-07-31T15:05:01;19.20;99.90
57664;DHT22;43493;53.098;6.064;2023-07-31T15:07:27;19.20;99.90
57664;DHT22;43493;53.098;6.064;2023-07-31T15:09:53;19.10;99.90
57664;DHT22;43493;53.098;6.064;2023-07-31T15:12:19;19.10;99.90
57664;DHT22;43493;53.098;6.064;2023-07-31T15:14:44;19.10;99.90
57664;DHT22;43493;53.098;6.064;2023-07-31T15:17:10;19.10;99.90
57664;DHT22;43493;53.098;6.064;2023-07-31T15:19:36;19.10;99.90
57664;DHT22;43493;53.098;6.064;2023-07-31T15:22:03;19.10;99.90
57664;DHT22;43493;53.098;6.064;2023-07-31T15:24:29;19.10;99.90
57664;DHT22;43493;53.098;6.064;2023-07-31T15:26:55;19.10;99.90
57664;DHT22;43493;53.098;6.064;2023-07-31T15:29:20;19.10;99.90
57664;DHT22;43493;53.098;6.064;2023-07-31T15:31:47;19.10;99.90
57664;DHT22;43493;53.098;6.064;2023-07-31T15:34:13;19.10;99.90
57664;DHT22;43493;53.098;6.064;2023-07-31T15:36:40;19.10;99.90
57664;DHT22;43493;53.098;6.064;2023-07-31T15:39:05;19.10;99.90
57664;DHT22;43493;53.098;6.064;2023-07-31T15:41:34;19.20;99.90